sensor_id;sensor_type;location;lat;lon;timestamp;P1;durP1;ratioP1;P2;durP2;ratioP2
16516;SDS011;8371;52.272;9.746;2023-02-18T00:01:07;0.87;;;0.70;;
16516;SDS011;8371;52.272;9.746;2023-02-18T00:03:37;0.53;;;0.53;;
16516;SDS011;8371;52.272;9.746;2023-02-18T00:06:19;1.10;;;0.67;;
16516;SDS011;8371;52.272;9.746;2023-02-18T00:08:47;0.97;;;0.80;;
16516;SDS011;8371;52.272;9.746;2023-02-18T00:11:15;2.90;;;0.73;;
16516;SDS011;8371;52.272;9.746;2023-02-18T00:13:42;1.00;;;0.80;;
16516;SDS011;8371;52.272;9.746;2023-02-18T00:16:09;4.87;;;0.70;;
16516;SDS011;8371;52.272;9.746;2023-02-18T00:18:36;0.63;;;0.57;;
16516;SDS011;8371;52.272;9.746;2023-02-18T00:21:06;3.87;;;1.20;;
16516;SDS011;8371;52.272;9.746;2023-02-18T00:23:32;0.40;;;0.40;;
16516;SDS011;8371;52.272;9.746;2023-02-18T00:25:59;1.80;;;0.70;;
16516;SDS011;8371;52.272;9.746;2023-02-18T00:28:25;0.60;;;0.60;;
16516;SDS011;8371;52.272;9.746;2023-02-18T00:30:51;1.23;;;0.90;;
16516;SDS011;8371;52.272;9.746;2023-02-18T00:33:17;0.50;;;0.50;;
16516;SDS011;8371;52.272;9.746;2023-02-18T00:35:42;0.90;;;0.73;;
16516;SDS011;8371;52.272;9.746;2023-02-18T00:38:08;0.63;;;0.60;;
16516;SDS011;8371;52.272;9.746;2023-02-18T00:40:37;1.07;;;0.80;;
16516;SDS011;8371;52.272;9.746;2023-02-18T00:43:04;2.00;;;0.87;;
16516;SDS011;8371;52.272;9.746;2023-02-18T00:45:29;1.10;;;0.60;;
16516;SDS011;8371;52.272;9.746;2023-02-18T00:47:55;0.60;;;0.50;;
16516;SDS011;8371;52.272;9.746;2023-02-18T00:50:21;0.70;;;0.70;;
16516;SDS011;8371;52.272;9.746;2023-02-18T00:52:47;1.13;;;0.90;;
16516;SDS011;8371;52.272;9.746;2023-02-18T00:55:13;1.90;;;1.10;;
16516;SDS011;8371;52.272;9.746;2023-02-18T00:57:39;0.97;;;0.97;;
16516;SDS011;8371;52.272;9.746;2023-02-18T01:00:05;1.73;;;1.30;;
16516;SDS011;8371;52.272;9.746;2023-02-18T01:02:31;0.70;;;0.60;;
16516;SDS011;8371;52.272;9.746;2023-02-18T01:04:57;0.73;;;0.50;;
16516;SDS011;8371;52.272;9.746;2023-02-18T01:07:23;1.43;;;0.60;;
16516;SDS011;8371;52.272;9.746;2023-02-18T01:09:49;0.47;;;0.47;;
16516;SDS011;8371;52.272;9.746;2023-02-18T01:12:15;2.27;;;0.70;;
16516;SDS011;8371;52.272;9.746;2023-02-18T01:14:40;1.37;;;0.70;;
16516;SDS011;8371;52.272;9.746;2023-02-18T01:17:06;2.20;;;0.60;;
16516;SDS011;8371;52.272;9.746;2023-02-18T01:19:32;2.03;;;0.90;;
16516;SDS011;8371;52.272;9.746;2023-02-18T01:21:58;1.07;;;0.70;;
16516;SDS011;8371;52.272;9.746;2023-02-18T01:24:23;2.67;;;0.80;;
16516;SDS011;8371;52.272;9.746;2023-02-18T01:26:49;1.63;;;1.00;;
16516;SDS011;8371;52.272;9.746;2023-02-18T01:29:15;1.23;;;0.70;;
16516;SDS011;8371;52.272;9.746;2023-02-18T01:31:40;1.00;;;0.90;;
16516;SDS011;8371;52.272;9.746;2023-02-18T01:34:06;0.73;;;0.73;;
16516;SDS011;8371;52.272;9.746;2023-02-18T01:36:31;1.70;;;0.80;;
16516;SDS011;8371;52.272;9.746;2023-02-18T01:38:57;0.70;;;0.70;;
16516;SDS011;8371;52.272;9.746;2023-02-18T01:41:23;1.27;;;0.80;;
16516;SDS011;8371;52.272;9.746;2023-02-18T01:44:08;0.80;;;0.67;;
16516;SDS011;8371;52.272;9.746;2023-02-18T01:46:35;1.70;;;0.77;;
16516;SDS011;8371;52.272;9.746;2023-02-18T01:49:00;1.67;;;0.60;;
16516;SDS011;8371;52.272;9.746;2023-02-18T01:51:27;2.27;;;0.90;;
16516;SDS011;8371;52.272;9.746;2023-02-18T01:53:58;0.70;;;0.70;;
16516;SDS011;8371;52.272;9.746;2023-02-18T01:56:27;0.73;;;0.73;;
16516;SDS011;8371;52.272;9.746;2023-02-18T01:59:01;2.83;;;0.87;;
16516;SDS011;8371;52.272;9.746;2023-02-18T02:01:29;2.37;;;0.87;;
16516;SDS011;8371;52.272;9.746;2023-02-18T02:03:56;0.77;;;0.73;;
16516;SDS011;8371;52.272;9.746;2023-02-18T02:06:22;0.77;;;0.77;;
16516;SDS011;8371;52.272;9.746;2023-02-18T02:08:49;2.73;;;0.87;;
16516;SDS011;8371;52.272;9.746;2023-02-18T02:11:25;5.30;;;0.90;;
16516;SDS011;8371;52.272;9.746;2023-02-18T02:17:10;4.40;;;0.77;;
16516;SDS011;8371;52.272;9.746;2023-02-18T02:25:47;0.70;;;0.60;;
16516;SDS011;8371;52.272;9.746;2023-02-18T02:31:37;1.37;;;0.90;;
16516;SDS011;8371;52.272;9.746;2023-02-18T02:34:19;1.77;;;0.70;;
16516;SDS011;8371;52.272;9.746;2023-02-18T02:42:23;0.93;;;0.70;;
16516;SDS011;8371;52.272;9.746;2023-02-18T02:44:54;1.67;;;1.07;;
16516;SDS011;8371;52.272;9.746;2023-02-18T02:47:27;0.80;;;0.80;;
16516;SDS011;8371;52.272;9.746;2023-02-18T02:52:58;1.47;;;0.90;;
16516;SDS011;8371;52.272;9.746;2023-02-18T02:55:27;4.00;;;1.37;;
16516;SDS011;8371;52.272;9.746;2023-02-18T02:57:53;3.40;;;1.33;;
16516;SDS011;8371;52.272;9.746;2023-02-18T03:00:22;1.20;;;1.10;;
16516;SDS011;8371;52.272;9.746;2023-02-18T03:03:09;1.30;;;1.20;;
16516;SDS011;8371;52.272;9.746;2023-02-18T03:05:45;1.70;;;1.50;;
16516;SDS011;8371;52.272;9.746;2023-02-18T03:10:52;5.30;;;2.57;;
16516;SDS011;8371;52.272;9.746;2023-02-18T03:19:03;3.70;;;2.93;;
16516;SDS011;8371;52.272;9.746;2023-02-18T03:21:40;4.67;;;2.63;;
16516;SDS011;8371;52.272;9.746;2023-02-18T03:24:25;3.77;;;3.10;;
16516;SDS011;8371;52.272;9.746;2023-02-18T03:26:54;5.87;;;3.43;;
16516;SDS011;8371;52.272;9.746;2023-02-18T03:29:22;3.97;;;3.77;;
16516;SDS011;8371;52.272;9.746;2023-02-18T03:31:51;4.07;;;3.87;;
16516;SDS011;8371;52.272;9.746;2023-02-18T03:34:19;4.57;;;4.37;;
16516;SDS011;8371;52.272;9.746;2023-02-18T03:36:48;4.93;;;4.53;;
16516;SDS011;8371;52.272;9.746;2023-02-18T03:39:14;6.10;;;5.23;;
16516;SDS011;8371;52.272;9.746;2023-02-18T03:41:44;4.70;;;4.50;;
16516;SDS011;8371;52.272;9.746;2023-02-18T03:44:10;5.50;;;4.93;;
16516;SDS011;8371;52.272;9.746;2023-02-18T03:46:37;4.50;;;4.30;;
16516;SDS011;8371;52.272;9.746;2023-02-18T03:49:05;5.63;;;5.13;;
16516;SDS011;8371;52.272;9.746;2023-02-18T03:51:31;4.77;;;4.40;;
16516;SDS011;8371;52.272;9.746;2023-02-18T03:53:57;4.53;;;4.23;;
16516;SDS011;8371;52.272;9.746;2023-02-18T03:56:23;5.27;;;4.70;;
16516;SDS011;8371;52.272;9.746;2023-02-18T03:58:48;4.60;;;4.20;;
16516;SDS011;8371;52.272;9.746;2023-02-18T04:01:14;5.70;;;4.97;;
16516;SDS011;8371;52.272;9.746;2023-02-18T04:03:40;4.17;;;3.93;;
16516;SDS011;8371;52.272;9.746;2023-02-18T04:06:06;4.73;;;4.53;;
16516;SDS011;8371;52.272;9.746;2023-02-18T04:08:32;4.37;;;4.07;;
16516;SDS011;8371;52.272;9.746;2023-02-18T04:10:57;6.30;;;4.87;;
16516;SDS011;8371;52.272;9.746;2023-02-18T04:13:23;5.40;;;5.00;;
16516;SDS011;8371;52.272;9.746;2023-02-18T04:15:49;5.77;;;5.47;;
16516;SDS011;8371;52.272;9.746;2023-02-18T04:18:15;6.63;;;6.27;;
16516;SDS011;8371;52.272;9.746;2023-02-18T04:20:42;7.40;;;6.77;;
16516;SDS011;8371;52.272;9.746;2023-02-18T04:23:07;7.10;;;6.67;;
16516;SDS011;8371;52.272;9.746;2023-02-18T04:25:33;5.87;;;5.57;;
16516;SDS011;8371;52.272;9.746;2023-02-18T04:27:59;6.53;;;6.23;;
16516;SDS011;8371;52.272;9.746;2023-02-18T04:30:25;6.37;;;5.97;;
16516;SDS011;8371;52.272;9.746;2023-02-18T04:32:51;7.43;;;6.73;;
16516;SDS011;8371;52.272;9.746;2023-02-18T04:35:17;7.27;;;6.67;;
16516;SDS011;8371;52.272;9.746;2023-02-18T04:37:43;7.13;;;6.63;;
16516;SDS011;8371;52.272;9.746;2023-02-18T04:40:08;6.83;;;6.37;;
16516;SDS011;8371;52.272;9.746;2023-02-18T04:42:35;7.73;;;7.23;;
16516;SDS011;8371;52.272;9.746;2023-02-18T04:45:01;7.17;;;6.77;;
16516;SDS011;8371;52.272;9.746;2023-02-18T04:47:27;8.87;;;8.07;;
16516;SDS011;8371;52.272;9.746;2023-02-18T04:49:52;7.00;;;6.57;;
16516;SDS011;8371;52.272;9.746;2023-02-18T04:52:18;6.30;;;5.97;;
16516;SDS011;8371;52.272;9.746;2023-02-18T04:54:44;6.90;;;6.37;;
16516;SDS011;8371;52.272;9.746;2023-02-18T04:57:10;6.17;;;5.87;;
16516;SDS011;8371;52.272;9.746;2023-02-18T04:59:35;7.10;;;6.60;;
16516;SDS011;8371;52.272;9.746;2023-02-18T05:02:01;7.00;;;6.40;;
16516;SDS011;8371;52.272;9.746;2023-02-18T05:04:27;7.43;;;6.60;;
16516;SDS011;8371;52.272;9.746;2023-02-18T05:06:53;6.77;;;6.30;;
16516;SDS011;8371;52.272;9.746;2023-02-18T05:09:19;6.93;;;6.47;;
16516;SDS011;8371;52.272;9.746;2023-02-18T05:11:45;7.07;;;6.53;;
16516;SDS011;8371;52.272;9.746;2023-02-18T05:14:12;7.00;;;6.67;;
16516;SDS011;8371;52.272;9.746;2023-02-18T05:16:38;6.93;;;6.43;;
16516;SDS011;8371;52.272;9.746;2023-02-18T05:19:03;6.93;;;6.37;;
16516;SDS011;8371;52.272;9.746;2023-02-18T05:21:29;7.07;;;6.60;;
16516;SDS011;8371;52.272;9.746;2023-02-18T05:23:55;6.30;;;5.90;;
16516;SDS011;8371;52.272;9.746;2023-02-18T05:26:21;6.50;;;6.07;;
16516;SDS011;8371;52.272;9.746;2023-02-18T05:28:48;5.97;;;5.67;;
16516;SDS011;8371;52.272;9.746;2023-02-18T05:31:14;7.40;;;6.90;;
16516;SDS011;8371;52.272;9.746;2023-02-18T05:33:39;6.37;;;5.97;;
16516;SDS011;8371;52.272;9.746;2023-02-18T05:36:05;6.73;;;6.33;;
16516;SDS011;8371;52.272;9.746;2023-02-18T05:38:31;7.40;;;6.90;;
16516;SDS011;8371;52.272;9.746;2023-02-18T05:40:57;7.00;;;6.60;;
16516;SDS011;8371;52.272;9.746;2023-02-18T05:43:22;6.47;;;6.20;;
16516;SDS011;8371;52.272;9.746;2023-02-18T05:45:48;7.53;;;7.00;;
16516;SDS011;8371;52.272;9.746;2023-02-18T05:48:14;7.40;;;6.63;;
16516;SDS011;8371;52.272;9.746;2023-02-18T05:50:39;6.87;;;6.57;;
16516;SDS011;8371;52.272;9.746;2023-02-18T05:53:06;6.83;;;6.43;;
16516;SDS011;8371;52.272;9.746;2023-02-18T05:55:31;6.70;;;6.40;;
16516;SDS011;8371;52.272;9.746;2023-02-18T05:57:59;7.03;;;6.50;;
16516;SDS011;8371;52.272;9.746;2023-02-18T06:00:25;6.47;;;6.03;;
16516;SDS011;8371;52.272;9.746;2023-02-18T06:02:50;8.53;;;6.87;;
16516;SDS011;8371;52.272;9.746;2023-02-18T06:05:16;6.33;;;5.80;;
16516;SDS011;8371;52.272;9.746;2023-02-18T06:07:42;6.77;;;6.47;;
16516;SDS011;8371;52.272;9.746;2023-02-18T06:10:08;6.30;;;6.00;;
16516;SDS011;8371;52.272;9.746;2023-02-18T06:12:34;6.30;;;5.90;;
16516;SDS011;8371;52.272;9.746;2023-02-18T06:14:59;6.00;;;5.70;;
16516;SDS011;8371;52.272;9.746;2023-02-18T06:17:25;6.53;;;6.23;;
16516;SDS011;8371;52.272;9.746;2023-02-18T06:19:50;6.33;;;5.93;;
16516;SDS011;8371;52.272;9.746;2023-02-18T06:22:16;6.73;;;6.43;;
16516;SDS011;8371;52.272;9.746;2023-02-18T06:24:42;7.27;;;6.80;;
16516;SDS011;8371;52.272;9.746;2023-02-18T06:27:07;6.10;;;5.77;;
16516;SDS011;8371;52.272;9.746;2023-02-18T06:32:12;5.53;;;5.33;;
16516;SDS011;8371;52.272;9.746;2023-02-18T06:34:39;5.83;;;5.53;;
16516;SDS011;8371;52.272;9.746;2023-02-18T06:37:04;5.67;;;5.37;;
16516;SDS011;8371;52.272;9.746;2023-02-18T06:39:30;5.50;;;5.20;;
16516;SDS011;8371;52.272;9.746;2023-02-18T06:41:55;4.93;;;4.63;;
16516;SDS011;8371;52.272;9.746;2023-02-18T06:44:21;4.97;;;4.77;;
16516;SDS011;8371;52.272;9.746;2023-02-18T06:46:47;5.07;;;4.77;;
16516;SDS011;8371;52.272;9.746;2023-02-18T06:49:12;5.07;;;4.87;;
16516;SDS011;8371;52.272;9.746;2023-02-18T06:51:38;4.90;;;4.60;;
16516;SDS011;8371;52.272;9.746;2023-02-18T06:54:04;5.50;;;5.10;;
16516;SDS011;8371;52.272;9.746;2023-02-18T06:56:30;4.90;;;4.53;;
16516;SDS011;8371;52.272;9.746;2023-02-18T06:58:55;4.90;;;4.70;;
16516;SDS011;8371;52.272;9.746;2023-02-18T07:01:21;4.77;;;4.47;;
16516;SDS011;8371;52.272;9.746;2023-02-18T07:03:47;4.87;;;4.67;;
16516;SDS011;8371;52.272;9.746;2023-02-18T07:06:12;4.50;;;4.20;;
16516;SDS011;8371;52.272;9.746;2023-02-18T07:08:38;4.40;;;4.10;;
16516;SDS011;8371;52.272;9.746;2023-02-18T07:11:04;3.77;;;3.50;;
16516;SDS011;8371;52.272;9.746;2023-02-18T07:13:31;3.93;;;3.83;;
16516;SDS011;8371;52.272;9.746;2023-02-18T07:15:56;3.83;;;3.70;;
16516;SDS011;8371;52.272;9.746;2023-02-18T07:18:22;3.33;;;3.23;;
16516;SDS011;8371;52.272;9.746;2023-02-18T07:20:48;2.77;;;2.67;;
16516;SDS011;8371;52.272;9.746;2023-02-18T07:23:13;3.23;;;3.13;;
16516;SDS011;8371;52.272;9.746;2023-02-18T07:25:39;3.47;;;3.37;;
16516;SDS011;8371;52.272;9.746;2023-02-18T07:28:05;3.63;;;3.53;;
16516;SDS011;8371;52.272;9.746;2023-02-18T07:30:31;3.30;;;3.20;;
16516;SDS011;8371;52.272;9.746;2023-02-18T07:32:56;2.87;;;2.77;;
16516;SDS011;8371;52.272;9.746;2023-02-18T07:35:22;3.00;;;2.90;;
16516;SDS011;8371;52.272;9.746;2023-02-18T07:37:48;3.17;;;3.07;;
16516;SDS011;8371;52.272;9.746;2023-02-18T07:40:18;2.90;;;2.70;;
16516;SDS011;8371;52.272;9.746;2023-02-18T07:42:45;3.37;;;3.23;;
16516;SDS011;8371;52.272;9.746;2023-02-18T07:45:11;3.20;;;3.10;;
16516;SDS011;8371;52.272;9.746;2023-02-18T07:47:38;2.93;;;2.83;;
16516;SDS011;8371;52.272;9.746;2023-02-18T07:50:04;3.17;;;3.07;;
16516;SDS011;8371;52.272;9.746;2023-02-18T07:52:31;3.17;;;3.07;;
16516;SDS011;8371;52.272;9.746;2023-02-18T07:54:57;3.37;;;3.27;;
16516;SDS011;8371;52.272;9.746;2023-02-18T07:57:22;3.27;;;3.17;;
16516;SDS011;8371;52.272;9.746;2023-02-18T07:59:48;3.30;;;3.20;;
16516;SDS011;8371;52.272;9.746;2023-02-18T08:02:16;2.77;;;2.67;;
16516;SDS011;8371;52.272;9.746;2023-02-18T08:04:43;2.60;;;2.50;;
16516;SDS011;8371;52.272;9.746;2023-02-18T08:07:12;2.97;;;2.87;;
16516;SDS011;8371;52.272;9.746;2023-02-18T08:09:40;2.10;;;2.10;;
16516;SDS011;8371;52.272;9.746;2023-02-18T08:12:07;2.00;;;2.00;;
16516;SDS011;8371;52.272;9.746;2023-02-18T08:14:33;2.10;;;2.00;;
16516;SDS011;8371;52.272;9.746;2023-02-18T08:16:59;2.20;;;2.10;;
16516;SDS011;8371;52.272;9.746;2023-02-18T08:19:24;1.83;;;1.83;;
16516;SDS011;8371;52.272;9.746;2023-02-18T08:21:50;1.40;;;1.40;;
16516;SDS011;8371;52.272;9.746;2023-02-18T08:24:16;1.60;;;1.60;;
16516;SDS011;8371;52.272;9.746;2023-02-18T08:26:42;1.20;;;1.20;;
16516;SDS011;8371;52.272;9.746;2023-02-18T08:29:07;1.10;;;1.10;;
16516;SDS011;8371;52.272;9.746;2023-02-18T08:31:33;1.07;;;1.07;;
16516;SDS011;8371;52.272;9.746;2023-02-18T08:34:01;0.80;;;0.80;;
16516;SDS011;8371;52.272;9.746;2023-02-18T08:36:28;0.60;;;0.60;;
16516;SDS011;8371;52.272;9.746;2023-02-18T08:38:55;0.70;;;0.70;;
16516;SDS011;8371;52.272;9.746;2023-02-18T08:41:21;0.50;;;0.50;;
16516;SDS011;8371;52.272;9.746;2023-02-18T08:43:47;0.40;;;0.40;;
16516;SDS011;8371;52.272;9.746;2023-02-18T08:46:13;0.33;;;0.33;;
16516;SDS011;8371;52.272;9.746;2023-02-18T08:48:40;0.40;;;0.40;;
16516;SDS011;8371;52.272;9.746;2023-02-18T08:51:16;0.30;;;0.30;;
16516;SDS011;8371;52.272;9.746;2023-02-18T08:53:44;0.20;;;0.20;;
16516;SDS011;8371;52.272;9.746;2023-02-18T08:56:12;0.30;;;0.30;;
16516;SDS011;8371;52.272;9.746;2023-02-18T08:58:39;0.20;;;0.20;;
16516;SDS011;8371;52.272;9.746;2023-02-18T09:01:06;0.30;;;0.30;;
16516;SDS011;8371;52.272;9.746;2023-02-18T09:03:33;0.30;;;0.30;;
16516;SDS011;8371;52.272;9.746;2023-02-18T09:05:59;0.30;;;0.30;;
16516;SDS011;8371;52.272;9.746;2023-02-18T09:08:26;0.30;;;0.30;;
16516;SDS011;8371;52.272;9.746;2023-02-18T09:10:56;0.60;;;0.60;;
16516;SDS011;8371;52.272;9.746;2023-02-18T09:13:23;0.30;;;0.30;;
16516;SDS011;8371;52.272;9.746;2023-02-18T09:15:56;0.40;;;0.40;;
16516;SDS011;8371;52.272;9.746;2023-02-18T09:18:26;0.20;;;0.20;;
16516;SDS011;8371;52.272;9.746;2023-02-18T09:20:54;0.33;;;0.33;;
16516;SDS011;8371;52.272;9.746;2023-02-18T09:23:30;0.40;;;0.40;;
16516;SDS011;8371;52.272;9.746;2023-02-18T09:25:55;0.30;;;0.30;;
16516;SDS011;8371;52.272;9.746;2023-02-18T09:28:21;0.20;;;0.20;;
16516;SDS011;8371;52.272;9.746;2023-02-18T09:30:47;0.20;;;0.20;;
16516;SDS011;8371;52.272;9.746;2023-02-18T09:33:13;0.10;;;0.10;;
16516;SDS011;8371;52.272;9.746;2023-02-18T09:35:44;0.20;;;0.20;;
16516;SDS011;8371;52.272;9.746;2023-02-18T09:38:09;0.20;;;0.20;;
16516;SDS011;8371;52.272;9.746;2023-02-18T09:40:37;0.17;;;0.17;;
16516;SDS011;8371;52.272;9.746;2023-02-18T09:43:06;0.33;;;0.33;;
16516;SDS011;8371;52.272;9.746;2023-02-18T09:45:31;0.13;;;0.13;;
16516;SDS011;8371;52.272;9.746;2023-02-18T09:47:58;0.13;;;0.13;;
16516;SDS011;8371;52.272;9.746;2023-02-18T09:50:30;0.27;;;0.27;;
16516;SDS011;8371;52.272;9.746;2023-02-18T09:52:58;0.20;;;0.20;;
16516;SDS011;8371;52.272;9.746;2023-02-18T09:58:02;0.30;;;0.30;;
16516;SDS011;8371;52.272;9.746;2023-02-18T10:00:34;0.30;;;0.30;;
16516;SDS011;8371;52.272;9.746;2023-02-18T10:03:04;0.20;;;0.20;;
16516;SDS011;8371;52.272;9.746;2023-02-18T10:05:33;0.30;;;0.30;;
16516;SDS011;8371;52.272;9.746;2023-02-18T10:08:16;0.20;;;0.20;;
16516;SDS011;8371;52.272;9.746;2023-02-18T10:10:37;0.30;;;0.30;;
16516;SDS011;8371;52.272;9.746;2023-02-18T10:13:15;0.20;;;0.20;;
16516;SDS011;8371;52.272;9.746;2023-02-18T10:15:42;0.30;;;0.30;;
16516;SDS011;8371;52.272;9.746;2023-02-18T10:18:16;0.23;;;0.23;;
16516;SDS011;8371;52.272;9.746;2023-02-18T10:21:06;0.40;;;0.40;;
16516;SDS011;8371;52.272;9.746;2023-02-18T10:23:36;0.30;;;0.30;;
16516;SDS011;8371;52.272;9.746;2023-02-18T10:26:05;0.47;;;0.47;;
16516;SDS011;8371;52.272;9.746;2023-02-18T10:28:33;0.30;;;0.30;;
16516;SDS011;8371;52.272;9.746;2023-02-18T10:31:02;0.33;;;0.33;;
16516;SDS011;8371;52.272;9.746;2023-02-18T10:36:43;0.40;;;0.40;;
16516;SDS011;8371;52.272;9.746;2023-02-18T10:39:18;0.40;;;0.40;;
16516;SDS011;8371;52.272;9.746;2023-02-18T10:41:51;0.40;;;0.40;;
16516;SDS011;8371;52.272;9.746;2023-02-18T10:49:54;0.30;;;0.30;;
16516;SDS011;8371;52.272;9.746;2023-02-18T10:52:24;0.23;;;0.23;;
16516;SDS011;8371;52.272;9.746;2023-02-18T10:57:28;0.27;;;0.27;;
16516;SDS011;8371;52.272;9.746;2023-02-18T10:59:57;0.30;;;0.30;;
16516;SDS011;8371;52.272;9.746;2023-02-18T11:02:26;0.20;;;0.20;;
16516;SDS011;8371;52.272;9.746;2023-02-18T11:04:56;0.30;;;0.30;;
16516;SDS011;8371;52.272;9.746;2023-02-18T11:07:29;0.30;;;0.30;;
16516;SDS011;8371;52.272;9.746;2023-02-18T11:10:00;0.43;;;0.43;;
16516;SDS011;8371;52.272;9.746;2023-02-18T11:12:29;0.40;;;0.40;;
16516;SDS011;8371;52.272;9.746;2023-02-18T11:15:15;0.23;;;0.23;;
16516;SDS011;8371;52.272;9.746;2023-02-18T11:17:42;0.30;;;0.30;;
16516;SDS011;8371;52.272;9.746;2023-02-18T11:22:48;0.30;;;0.30;;
16516;SDS011;8371;52.272;9.746;2023-02-18T11:25:18;0.47;;;0.40;;
16516;SDS011;8371;52.272;9.746;2023-02-18T11:27:50;0.40;;;0.40;;
16516;SDS011;8371;52.272;9.746;2023-02-18T11:30:20;0.40;;;0.40;;
16516;SDS011;8371;52.272;9.746;2023-02-18T11:33:02;0.70;;;0.70;;
16516;SDS011;8371;52.272;9.746;2023-02-18T11:35:30;0.57;;;0.57;;
16516;SDS011;8371;52.272;9.746;2023-02-18T11:37:57;0.70;;;0.70;;
16516;SDS011;8371;52.272;9.746;2023-02-18T11:40:30;0.50;;;0.50;;
16516;SDS011;8371;52.272;9.746;2023-02-18T11:43:02;0.50;;;0.50;;
16516;SDS011;8371;52.272;9.746;2023-02-18T11:45:33;0.50;;;0.50;;
16516;SDS011;8371;52.272;9.746;2023-02-18T11:48:00;0.60;;;0.60;;
16516;SDS011;8371;52.272;9.746;2023-02-18T11:50:32;0.33;;;0.33;;
16516;SDS011;8371;52.272;9.746;2023-02-18T11:52:58;0.60;;;0.60;;
16516;SDS011;8371;52.272;9.746;2023-02-18T11:55:25;0.40;;;0.40;;
16516;SDS011;8371;52.272;9.746;2023-02-18T12:00:43;0.50;;;0.50;;
16516;SDS011;8371;52.272;9.746;2023-02-18T12:03:23;0.30;;;0.30;;
16516;SDS011;8371;52.272;9.746;2023-02-18T12:05:59;0.27;;;0.27;;
16516;SDS011;8371;52.272;9.746;2023-02-18T12:08:27;0.20;;;0.20;;
16516;SDS011;8371;52.272;9.746;2023-02-18T12:11:03;0.30;;;0.30;;
16516;SDS011;8371;52.272;9.746;2023-02-18T12:13:35;0.40;;;0.40;;
16516;SDS011;8371;52.272;9.746;2023-02-18T12:16:22;0.30;;;0.30;;
16516;SDS011;8371;52.272;9.746;2023-02-18T12:18:52;0.20;;;0.20;;
16516;SDS011;8371;52.272;9.746;2023-02-18T12:27:21;0.40;;;0.40;;
16516;SDS011;8371;52.272;9.746;2023-02-18T12:37:55;0.10;;;0.10;;
16516;SDS011;8371;52.272;9.746;2023-02-18T12:43:30;0.20;;;0.20;;
16516;SDS011;8371;52.272;9.746;2023-02-18T12:48:55;0.10;;;0.10;;
16516;SDS011;8371;52.272;9.746;2023-02-18T12:51:25;0.43;;;0.43;;
16516;SDS011;8371;52.272;9.746;2023-02-18T12:57:07;0.30;;;0.30;;
16516;SDS011;8371;52.272;9.746;2023-02-18T12:59:49;0.20;;;0.20;;
16516;SDS011;8371;52.272;9.746;2023-02-18T13:05:17;0.20;;;0.20;;
16516;SDS011;8371;52.272;9.746;2023-02-18T13:07:55;0.97;;;0.30;;
16516;SDS011;8371;52.272;9.746;2023-02-18T13:10:33;0.47;;;0.33;;
16516;SDS011;8371;52.272;9.746;2023-02-18T13:13:17;0.30;;;0.30;;
16516;SDS011;8371;52.272;9.746;2023-02-18T13:15:46;0.23;;;0.23;;
16516;SDS011;8371;52.272;9.746;2023-02-18T13:18:33;0.40;;;0.40;;
16516;SDS011;8371;52.272;9.746;2023-02-18T13:21:11;1.20;;;0.50;;
16516;SDS011;8371;52.272;9.746;2023-02-18T13:23:42;0.60;;;0.60;;
16516;SDS011;8371;52.272;9.746;2023-02-18T13:26:08;0.33;;;0.33;;
16516;SDS011;8371;52.272;9.746;2023-02-18T13:28:47;0.40;;;0.40;;
16516;SDS011;8371;52.272;9.746;2023-02-18T13:31:34;0.50;;;0.50;;
16516;SDS011;8371;52.272;9.746;2023-02-18T13:34:07;0.30;;;0.30;;
16516;SDS011;8371;52.272;9.746;2023-02-18T13:36:48;0.30;;;0.30;;
16516;SDS011;8371;52.272;9.746;2023-02-18T13:39:18;0.30;;;0.30;;
16516;SDS011;8371;52.272;9.746;2023-02-18T13:41:47;0.50;;;0.50;;
16516;SDS011;8371;52.272;9.746;2023-02-18T13:46:47;0.30;;;0.30;;
16516;SDS011;8371;52.272;9.746;2023-02-18T13:49:20;0.60;;;0.60;;
16516;SDS011;8371;52.272;9.746;2023-02-18T13:51:49;0.40;;;0.40;;
16516;SDS011;8371;52.272;9.746;2023-02-18T13:54:18;0.30;;;0.30;;
16516;SDS011;8371;52.272;9.746;2023-02-18T13:59:34;1.67;;;0.50;;
16516;SDS011;8371;52.272;9.746;2023-02-18T14:05:14;0.50;;;0.50;;
16516;SDS011;8371;52.272;9.746;2023-02-18T14:25:54;0.40;;;0.40;;
16516;SDS011;8371;52.272;9.746;2023-02-18T14:33:41;0.47;;;0.47;;
16516;SDS011;8371;52.272;9.746;2023-02-18T14:36:35;0.50;;;0.50;;
16516;SDS011;8371;52.272;9.746;2023-02-18T14:39:32;0.20;;;0.20;;
16516;SDS011;8371;52.272;9.746;2023-02-18T14:42:02;0.30;;;0.30;;
16516;SDS011;8371;52.272;9.746;2023-02-18T14:47:19;0.47;;;0.47;;
16516;SDS011;8371;52.272;9.746;2023-02-18T14:49:51;0.80;;;0.80;;
16516;SDS011;8371;52.272;9.746;2023-02-18T14:54:56;0.67;;;0.67;;
16516;SDS011;8371;52.272;9.746;2023-02-18T15:00:17;0.77;;;0.77;;
16516;SDS011;8371;52.272;9.746;2023-02-18T15:02:47;0.80;;;0.80;;
16516;SDS011;8371;52.272;9.746;2023-02-18T15:05:19;0.60;;;0.60;;
16516;SDS011;8371;52.272;9.746;2023-02-18T15:07:56;0.97;;;0.63;;
16516;SDS011;8371;52.272;9.746;2023-02-18T15:10:26;0.60;;;0.60;;
16516;SDS011;8371;52.272;9.746;2023-02-18T15:12:56;0.67;;;0.67;;
16516;SDS011;8371;52.272;9.746;2023-02-18T15:15:22;0.73;;;0.53;;
16516;SDS011;8371;52.272;9.746;2023-02-18T15:17:49;0.70;;;0.70;;
16516;SDS011;8371;52.272;9.746;2023-02-18T15:20:15;0.93;;;0.93;;
16516;SDS011;8371;52.272;9.746;2023-02-18T15:22:41;1.13;;;1.10;;
16516;SDS011;8371;52.272;9.746;2023-02-18T15:25:10;1.07;;;0.90;;
16516;SDS011;8371;52.272;9.746;2023-02-18T15:27:40;0.57;;;0.57;;
16516;SDS011;8371;52.272;9.746;2023-02-18T15:30:25;1.20;;;1.10;;
16516;SDS011;8371;52.272;9.746;2023-02-18T15:32:51;0.87;;;0.87;;
16516;SDS011;8371;52.272;9.746;2023-02-18T15:35:19;0.80;;;0.80;;
16516;SDS011;8371;52.272;9.746;2023-02-18T15:37:54;2.00;;;1.03;;
16516;SDS011;8371;52.272;9.746;2023-02-18T15:40:22;1.23;;;1.23;;
16516;SDS011;8371;52.272;9.746;2023-02-18T15:42:51;1.13;;;1.13;;
16516;SDS011;8371;52.272;9.746;2023-02-18T15:45:20;1.13;;;1.13;;
16516;SDS011;8371;52.272;9.746;2023-02-18T15:47:52;1.23;;;1.20;;
16516;SDS011;8371;52.272;9.746;2023-02-18T15:50:21;1.27;;;1.13;;
16516;SDS011;8371;52.272;9.746;2023-02-18T15:52:57;1.10;;;1.10;;
16516;SDS011;8371;52.272;9.746;2023-02-18T15:57:59;1.43;;;1.37;;
16516;SDS011;8371;52.272;9.746;2023-02-18T16:00:31;1.90;;;1.13;;
16516;SDS011;8371;52.272;9.746;2023-02-18T16:03:00;2.00;;;1.30;;
16516;SDS011;8371;52.272;9.746;2023-02-18T16:05:28;1.13;;;1.13;;
16516;SDS011;8371;52.272;9.746;2023-02-18T16:07:59;4.43;;;1.40;;
16516;SDS011;8371;52.272;9.746;2023-02-18T16:13:01;1.10;;;1.10;;
16516;SDS011;8371;52.272;9.746;2023-02-18T16:15:30;1.60;;;1.30;;
16516;SDS011;8371;52.272;9.746;2023-02-18T16:17:57;1.63;;;1.53;;
16516;SDS011;8371;52.272;9.746;2023-02-18T16:20:34;1.40;;;1.30;;
16516;SDS011;8371;52.272;9.746;2023-02-18T16:23:02;3.07;;;1.40;;
16516;SDS011;8371;52.272;9.746;2023-02-18T16:25:41;2.03;;;1.30;;
16516;SDS011;8371;52.272;9.746;2023-02-18T16:28:13;2.40;;;1.50;;
16516;SDS011;8371;52.272;9.746;2023-02-18T16:30:41;2.17;;;1.27;;
16516;SDS011;8371;52.272;9.746;2023-02-18T16:33:09;1.70;;;1.20;;
16516;SDS011;8371;52.272;9.746;2023-02-18T16:35:36;1.57;;;1.47;;
16516;SDS011;8371;52.272;9.746;2023-02-18T16:38:02;2.77;;;1.60;;
16516;SDS011;8371;52.272;9.746;2023-02-18T16:40:29;2.10;;;1.00;;
16516;SDS011;8371;52.272;9.746;2023-02-18T16:43:01;1.43;;;1.33;;
16516;SDS011;8371;52.272;9.746;2023-02-18T16:45:33;1.47;;;1.37;;
16516;SDS011;8371;52.272;9.746;2023-02-18T16:48:03;1.37;;;1.27;;
16516;SDS011;8371;52.272;9.746;2023-02-18T16:50:30;1.20;;;1.20;;
16516;SDS011;8371;52.272;9.746;2023-02-18T16:52:58;1.23;;;1.20;;
16516;SDS011;8371;52.272;9.746;2023-02-18T16:55:26;1.83;;;1.67;;
16516;SDS011;8371;52.272;9.746;2023-02-18T16:57:53;2.50;;;1.50;;
16516;SDS011;8371;52.272;9.746;2023-02-18T17:00:20;1.30;;;1.23;;
16516;SDS011;8371;52.272;9.746;2023-02-18T17:02:48;1.70;;;1.60;;
16516;SDS011;8371;52.272;9.746;2023-02-18T17:05:19;1.90;;;1.70;;
16516;SDS011;8371;52.272;9.746;2023-02-18T17:07:49;2.40;;;1.50;;
16516;SDS011;8371;52.272;9.746;2023-02-18T17:10:15;1.33;;;1.27;;
16516;SDS011;8371;52.272;9.746;2023-02-18T17:12:41;1.47;;;1.23;;